createdAt,value
2023-03-17T00:02:10.016Z,61093.06
2023-03-17T00:04:38.555Z,61093.06
2023-03-17T00:07:08.646Z,61088.78
2023-03-17T00:09:37.014Z,61093.06
2023-03-17T00:12:11.674Z,61097.63
2023-03-17T00:14:40.498Z,61084.75
2023-03-17T00:17:14.182Z,61087.31
2023-03-17T00:19:44.747Z,61090.25
2023-03-17T00:22:19.868Z,61086.66
2023-03-17T00:24:48.486Z,61091.34
2023-03-17T00:27:17.951Z,61090.25
2023-03-17T00:29:47.051Z,61081.56
2023-03-17T00:32:19.425Z,61085.16
2023-03-17T00:34:48.082Z,61086.13
2023-03-17T00:37:20.172Z,61083.03
2023-03-17T00:39:49.409Z,61085.03
2023-03-17T00:42:17.738Z,61085.03
2023-03-17T00:44:47.091Z,61069.78
2023-03-17T00:47:15.693Z,61080.78
2023-03-17T00:49:44.198Z,61079.69
2023-03-17T00:52:13.111Z,61079.16
2023-03-17T00:54:44.297Z,61073.81
2023-03-17T00:57:13.078Z,61074.88
2023-03-17T00:59:43.336Z,61072.88
2023-03-17T01:02:13.888Z,61075.41
2023-03-17T01:04:47.776Z,61074.88
2023-03-17T01:07:21.751Z,61080.00
2023-03-17T01:09:51.871Z,61072.22
2023-03-17T01:12:20.713Z,61066.34
2023-03-17T01:14:50.711Z,61069.00
2023-03-17T01:17:23.103Z,61061.38
2023-03-17T01:19:51.541Z,61060.97
2023-03-17T01:22:20.444Z,61060.97
2023-03-17T01:24:50.285Z,61059.41
2023-03-17T01:27:19.693Z,61059.91
2023-03-17T01:29:48.034Z,61054.81
2023-03-17T01:32:16.405Z,61057.91
2023-03-17T01:34:44.780Z,61058.44
2023-03-17T01:37:13.532Z,61061.09
2023-03-17T01:39:42.099Z,61056.72
2023-03-17T01:42:12.010Z,61065.25
2023-03-17T01:45:02.618Z,61060.47
2023-03-17T01:47:32.123Z,61059.91
2023-03-17T01:50:06.264Z,61055.22
2023-03-17T01:52:36.529Z,61054.16
2023-03-17T01:55:08.046Z,61060.47
2023-03-17T01:57:42.410Z,61055.63
2023-03-17T02:00:14.705Z,61058.19
2023-03-17T02:02:46.317Z,61056.16
2023-03-17T02:05:18.268Z,61050.84
2023-03-17T02:07:47.922Z,61047.50
2023-03-17T02:10:19.333Z,61041.72
2023-03-17T02:12:52.484Z,61041.06
2023-03-17T02:15:21.523Z,61027.44
2023-03-17T02:17:50.712Z,61025.94
2023-03-17T02:21:15.468Z,61030.50
2023-03-17T02:23:45.436Z,61016.06
2023-03-17T02:26:13.946Z,61008.84
2023-03-17T02:28:46.047Z,61015.00
2023-03-17T02:31:14.574Z,61006.69
2023-03-17T02:33:43.580Z,61017.00
2023-03-17T02:36:11.974Z,61007.78
2023-03-17T02:38:40.412Z,61013.94
2023-03-17T02:41:10.651Z,61011.38
2023-03-17T02:43:39.013Z,61019.03
2023-03-17T02:46:07.495Z,61003.50
2023-03-17T02:48:38.135Z,61006.47
2023-03-17T02:51:07.039Z,61010.06
2023-03-17T02:53:35.547Z,61005.81
2023-03-17T02:56:03.919Z,60999.75
2023-03-17T02:58:33.749Z,61003.78
2023-03-17T03:01:02.299Z,61003.38
2023-03-17T03:03:31.181Z,61001.13
2023-03-17T03:06:01.576Z,61000.03
2023-03-17T03:08:32.120Z,60995.78
2023-03-17T03:11:02.491Z,60996.84
2023-03-17T03:13:31.209Z,60990.28
2023-03-17T03:16:01.206Z,60990.56
2023-03-17T03:18:29.680Z,60993.09
2023-03-17T03:20:58.079Z,60988.28
2023-03-17T03:23:26.431Z,60983.38
2023-03-17T03:25:54.859Z,60979.22
2023-03-17T03:28:23.287Z,60975.47
2023-03-17T03:30:52.032Z,60973.34
2023-03-17T03:33:21.808Z,60969.06
2023-03-17T03:35:50.533Z,60963.72
2023-03-17T03:38:19.308Z,60950.63
2023-03-17T03:40:47.832Z,60952.22
2023-03-17T03:43:23.406Z,60957.31
2023-03-17T03:45:52.497Z,60949.72
2023-03-17T03:48:23.162Z,60948.66
2023-03-17T03:50:51.537Z,60946.22
2023-03-17T03:53:20.095Z,60950.38
2023-03-17T03:55:48.500Z,60947.28
2023-03-17T03:58:16.922Z,60941.84
2023-03-17T04:00:45.672Z,60939.28
2023-03-17T04:03:14.502Z,60940.22
2023-03-17T04:05:44.354Z,60938.22
2023-03-17T04:08:12.836Z,60938.75
2023-03-17T04:10:41.215Z,60945.97
2023-03-17T04:13:09.673Z,60939.41
2023-03-17T04:15:38.094Z,60940.63
2023-03-17T04:18:06.664Z,60941.97
2023-03-17T04:20:35.209Z,60939.94
2023-03-17T04:23:04.990Z,60952.38
2023-03-17T04:25:33.629Z,60939.16
2023-03-17T04:28:02.054Z,60937.03
2023-03-17T04:30:30.713Z,60940.22
2023-03-17T04:32:59.420Z,60934.06
2023-03-17T04:35:28.057Z,60935.84
2023-03-17T04:37:56.484Z,60935.44
2023-03-17T04:40:27.085Z,60928.47
2023-03-17T04:42:55.534Z,60924.75
2023-03-17T04:45:24.586Z,60921.00
2023-03-17T04:47:53.022Z,60924.63
2023-03-17T04:50:21.723Z,60919.94
2023-03-17T04:52:50.202Z,60925.56
2023-03-17T04:55:18.899Z,60921.53
2023-03-17T04:57:48.743Z,60919.94
2023-03-17T05:00:18.276Z,60928.34
2023-03-17T05:02:46.809Z,60929.56
2023-03-17T05:05:15.278Z,60927.00
2023-03-17T05:07:44.936Z,60925.53
2023-03-17T05:10:14.077Z,60926.34
2023-03-17T05:12:42.725Z,60914.06
2023-03-17T05:15:13.294Z,60903.94
2023-03-17T05:17:41.974Z,60898.19
2023-03-17T05:20:12.410Z,60889.25
2023-03-17T05:22:41.738Z,60893.78
2023-03-17T05:25:10.789Z,60891.78
2023-03-17T05:27:39.536Z,60893.13
2023-03-17T05:30:09.874Z,60886.44
2023-03-17T05:32:40.463Z,60886.19
2023-03-17T05:35:10.024Z,60881.09
2023-03-17T05:37:38.759Z,60889.00
2023-03-17T05:40:08.402Z,60891.53
2023-03-17T05:42:36.932Z,60880.56
2023-03-17T05:45:07.325Z,60878.97
2023-03-17T05:47:36.237Z,60882.28
2023-03-17T05:50:08.075Z,60887.94
2023-03-17T05:52:36.897Z,60890.06
2023-03-17T05:55:06.112Z,60889.66
2023-03-17T05:57:34.888Z,60894.31
2023-03-17T06:00:05.546Z,60884.97
2023-03-17T06:02:35.479Z,60888.03
2023-03-17T06:05:06.337Z,60885.78
2023-03-17T06:07:48.497Z,60886.97
2023-03-17T06:10:19.846Z,60886.72
2023-03-17T06:12:48.556Z,60879.91
2023-03-17T06:15:17.672Z,60887.38
2023-03-17T06:17:46.140Z,60880.16
2023-03-17T06:20:16.848Z,60889.66
2023-03-17T06:23:02.292Z,60892.19
2023-03-17T06:25:32.673Z,60892.97
2023-03-17T06:28:02.424Z,60897.53
2023-03-17T06:30:32.879Z,60906.06
2023-03-17T06:33:02.147Z,60911.28
2023-03-17T06:35:33.474Z,60909.81
2023-03-17T06:38:03.568Z,60920.88
2023-03-17T06:40:34.103Z,60919.53
2023-03-17T06:43:03.134Z,60923.13
2023-03-17T06:45:32.947Z,60923.13
2023-03-17T06:48:01.741Z,60925.81
2023-03-17T06:50:31.790Z,60932.22
2023-03-17T06:53:00.399Z,60937.03
2023-03-17T06:55:29.318Z,60934.47
2023-03-17T06:57:59.030Z,60945.97
2023-03-17T07:00:28.720Z,60946.50
2023-03-17T07:02:57.824Z,60951.69
2023-03-17T07:05:26.419Z,60965.88
2023-03-17T07:07:56.114Z,60970.78
2023-03-17T07:10:24.824Z,60972.78
2023-03-17T07:12:53.469Z,60980.94
2023-03-17T07:15:22.257Z,60981.06
2023-03-17T07:17:50.692Z,60992.16
2023-03-17T07:20:20.800Z,61012.63
2023-03-17T07:22:49.332Z,61017.13
2023-03-17T07:25:19.642Z,61028.91
2023-03-17T07:27:48.126Z,61048.16
2023-03-17T07:30:19.178Z,61067.00
2023-03-17T07:32:48.204Z,61082.91
2023-03-17T07:35:17.648Z,61089.44
2023-03-17T07:37:46.208Z,61113.91
2023-03-17T07:40:15.233Z,61135.19
2023-03-17T07:42:45.534Z,61154.03
2023-03-17T07:45:14.379Z,61168.34
2023-03-17T07:47:43.042Z,61187.75
2023-03-17T07:50:12.661Z,61199.22
2023-03-17T07:52:41.889Z,61212.50
2023-03-17T07:55:12.446Z,61233.25
2023-03-17T07:57:41.423Z,61254.66
2023-03-17T08:00:13.691Z,61270.22
2023-03-17T08:02:42.361Z,61283.84
2023-03-17T08:05:11.951Z,61321.53
2023-03-17T08:07:40.728Z,61345.78
2023-03-17T08:10:12.922Z,61414.41
2023-03-17T08:12:42.684Z,61527.53
2023-03-17T08:15:13.846Z,61645.72
2023-03-17T08:17:42.276Z,61784.63
2023-03-17T08:20:13.005Z,61794.06
2023-03-17T08:22:41.952Z,61865.94
2023-03-17T08:25:11.480Z,61946.44
2023-03-17T08:27:40.735Z,61928.94
2023-03-17T08:30:12.957Z,61843.31
2023-03-17T08:32:41.420Z,61898.13
2023-03-17T08:35:15.128Z,61918.06
2023-03-17T08:37:43.987Z,61908.47
2023-03-17T08:40:13.913Z,61944.56
2023-03-17T08:42:42.488Z,61987.50
2023-03-17T08:45:13.260Z,61953.22
2023-03-17T08:47:41.861Z,61874.44
2023-03-17T08:50:15.595Z,61859.47
2023-03-17T08:52:44.041Z,61868.50
2023-03-17T08:55:13.818Z,61871.31
2023-03-17T08:57:43.089Z,61893.94
2023-03-17T09:00:16.078Z,61931.00
2023-03-17T09:02:45.320Z,61969.94
2023-03-17T09:05:15.414Z,62003.91
2023-03-17T09:07:44.561Z,61980.19
2023-03-17T09:10:14.912Z,62004.22
2023-03-17T09:12:43.556Z,62000.03
2023-03-17T09:15:14.205Z,61996.13
2023-03-17T09:17:43.785Z,62001.09
2023-03-17T09:20:13.818Z,61986.09
2023-03-17T09:22:42.198Z,61996.13
2023-03-17T09:25:11.059Z,61953.88
2023-03-17T09:27:39.443Z,61945.66
2023-03-17T09:30:10.473Z,61951.09
2023-03-17T09:32:40.493Z,61915.81
2023-03-17T09:35:09.834Z,61891.56
2023-03-17T09:37:39.028Z,61860.00
2023-03-17T09:40:09.315Z,61840.06
2023-03-17T09:42:54.703Z,61847.63
2023-03-17T09:45:34.436Z,61813.13
2023-03-17T09:48:36.796Z,61790.97
2023-03-17T09:51:08.633Z,61829.31
2023-03-17T09:53:42.933Z,61845.47
2023-03-17T09:56:16.315Z,61856.25
2023-03-17T09:58:52.595Z,61822.31
2023-03-17T10:01:21.615Z,61800.66
2023-03-17T10:03:51.622Z,61815.81
2023-03-17T10:06:34.591Z,61851.16
2023-03-17T10:09:15.291Z,61839.00
2023-03-17T10:11:46.011Z,61800.22
2023-03-17T10:14:32.389Z,61825.44
2023-03-17T10:17:05.812Z,61839.88
2023-03-17T10:19:42.297Z,61828.66
2023-03-17T10:22:21.818Z,61818.53
2023-03-17T10:24:56.063Z,61825.00
2023-03-17T10:27:24.902Z,61826.09
2023-03-17T10:29:53.375Z,61834.16
2023-03-17T10:32:22.527Z,61838.47
2023-03-17T10:34:52.369Z,61828.22
2023-03-17T10:37:24.857Z,61833.50
2023-03-17T10:39:56.157Z,61868.09
2023-03-17T10:42:27.544Z,61878.31
2023-03-17T10:44:58.275Z,61924.13
2023-03-17T10:47:39.669Z,61928.00
2023-03-17T10:50:23.094Z,61936.50
2023-03-17T10:52:57.870Z,61940.28
2023-03-17T10:55:31.067Z,61934.88
2023-03-17T10:58:06.825Z,61943.81
2023-03-17T11:00:38.738Z,61934.88
2023-03-17T11:03:17.762Z,61963.47
2023-03-17T11:05:57.823Z,61982.75
2023-03-17T11:08:26.235Z,62007.56
2023-03-17T11:10:57.718Z,62050.28
2023-03-17T11:13:31.269Z,62067.34
2023-03-17T11:16:11.640Z,62048.66
2023-03-17T11:18:41.943Z,62055.69
2023-03-17T11:21:16.557Z,62080.31
2023-03-17T11:23:53.947Z,62086.34
2023-03-17T11:26:53.761Z,62028.16
2023-03-17T11:29:29.999Z,62023.09
2023-03-17T11:32:10.976Z,62046.41
2023-03-17T11:34:57.078Z,62059.78
2023-03-17T11:37:45.484Z,62077.72
2023-03-17T11:40:21.643Z,62031.31
2023-03-17T11:43:14.617Z,62037.78
2023-03-17T11:45:50.827Z,62018.88
2023-03-17T11:48:41.330Z,62048.66
2023-03-17T11:51:20.288Z,62055.47
2023-03-17T11:54:06.621Z,62041.13
2023-03-17T11:56:43.445Z,62058.81
2023-03-17T11:59:27.066Z,62091.22
2023-03-17T12:02:04.800Z,62100.38
2023-03-17T12:04:39.183Z,62101.88
2023-03-17T12:07:20.678Z,62120.25
2023-03-17T12:10:00.253Z,62133.41
2023-03-17T12:12:34.148Z,62107.28
2023-03-17T12:15:05.345Z,62087.41
2023-03-17T12:17:48.700Z,62114.75
2023-03-17T12:20:21.099Z,62107.28
2023-03-17T12:22:57.121Z,62105.78
2023-03-17T12:25:34.034Z,62084.63
2023-03-17T12:28:09.407Z,62078.81
2023-03-17T12:30:49.347Z,62072.97
2023-03-17T12:33:26.067Z,62082.13
2023-03-17T12:36:02.608Z,62076.09
2023-03-17T12:38:37.932Z,62094.56
2023-03-17T12:41:38.692Z,62088.50
2023-03-17T12:44:19.033Z,62077.28
2023-03-17T12:47:24.166Z,62069.50
2023-03-17T12:50:27.088Z,62056.53
2023-03-17T12:53:29.533Z,62037.34
2023-03-17T12:56:08.178Z,62042.31
2023-03-17T12:58:41.901Z,62047.69
2023-03-17T13:01:21.424Z,62060.31
2023-03-17T13:04:04.689Z,62074.88
2023-03-17T13:06:40.948Z,62064.31
2023-03-17T13:09:45.815Z,62090.56
2023-03-17T13:12:57.306Z,62090.66
2023-03-17T13:15:51.272Z,62067.97
2023-03-17T13:18:48.487Z,62062.16
2023-03-17T13:21:26.485Z,62058.91
2023-03-17T13:24:21.040Z,62073.28
2023-03-17T13:27:00.913Z,62059.78
2023-03-17T13:29:48.706Z,62060.53
2023-03-17T13:32:39.732Z,62047.28
2023-03-17T13:35:38.693Z,62066.81
2023-03-17T13:38:43.732Z,62088.94
2023-03-17T13:41:49.743Z,62076.22
2023-03-17T13:44:37.726Z,62084.19
2023-03-17T13:47:33.489Z,62098.66
2023-03-17T13:50:09.662Z,62082.69
2023-03-17T13:52:43.553Z,62072.84
2023-03-17T13:55:39.540Z,62081.41
2023-03-17T13:58:26.439Z,62074.88
2023-03-17T14:01:03.840Z,62072.28
2023-03-17T14:03:41.435Z,62071.75
2023-03-17T14:06:13.710Z,62074.88
2023-03-17T14:08:48.246Z,62058.72
2023-03-17T14:11:29.427Z,62060.41
2023-03-17T14:14:32.234Z,62074.44
2023-03-17T14:17:10.919Z,62075.13
2023-03-17T14:19:41.825Z,62084.72
2023-03-17T14:22:24.775Z,62083.13
2023-03-17T14:24:54.732Z,62088.06
2023-03-17T14:27:25.075Z,62078.81
2023-03-17T14:29:53.904Z,62065.94
2023-03-17T14:32:25.402Z,62074.44
2023-03-17T14:34:59.598Z,62077.28
2023-03-17T14:37:30.265Z,62095.41
2023-03-17T14:40:00.229Z,62095.94
2023-03-17T14:42:31.127Z,62103.63
2023-03-17T14:45:05.588Z,62098.88
2023-03-17T14:47:40.138Z,62114.41
2023-03-17T14:50:18.089Z,62120.25
2023-03-17T14:52:47.881Z,62121.31
2023-03-17T14:55:19.773Z,62121.75
2023-03-17T14:57:52.609Z,62118.63
2023-03-17T15:00:36.541Z,62119.69
2023-03-17T15:03:17.722Z,62116.56
2023-03-17T15:05:47.462Z,62106.22
2023-03-17T15:08:43.311Z,62105.34
2023-03-17T15:11:21.518Z,62105.34
2023-03-17T15:13:52.557Z,62105.88
2023-03-17T15:16:25.845Z,62112.25
2023-03-17T15:19:08.422Z,62100.91
2023-03-17T15:21:41.404Z,62099.75
2023-03-17T15:24:40.031Z,62089.16
2023-03-17T15:27:15.561Z,62085.28
2023-03-17T15:29:44.382Z,62085.16
2023-03-17T15:32:15.811Z,62073.38
2023-03-17T15:34:44.275Z,62085.28
2023-03-17T15:37:21.659Z,62092.81
2023-03-17T15:39:52.939Z,62083.13
2023-03-17T15:42:25.715Z,62081.94
2023-03-17T15:44:54.860Z,62080.31
2023-03-17T15:47:27.600Z,62075.97
2023-03-17T15:50:00.085Z,62069.69
2023-03-17T15:52:29.641Z,62075.44
2023-03-17T15:55:00.984Z,62072.19
2023-03-17T15:57:29.355Z,62068.53
2023-03-17T15:59:57.831Z,62065.94
2023-03-17T16:02:31.825Z,62049.31
2023-03-17T16:05:03.064Z,62045.44
2023-03-17T16:07:31.495Z,62048.13
2023-03-17T16:10:01.247Z,62041.00
2023-03-17T16:12:29.892Z,62037.34
2023-03-17T16:14:58.350Z,62031.94
2023-03-17T16:17:30.088Z,62030.84
2023-03-17T16:19:59.720Z,62033.91
2023-03-17T16:22:41.864Z,62018.78
2023-03-17T16:25:26.651Z,62000.66
2023-03-17T16:27:57.748Z,61990.97
2023-03-17T16:30:28.723Z,61999.38
2023-03-17T16:33:02.209Z,61983.84
2023-03-17T16:35:31.204Z,61992.38
2023-03-17T16:37:59.610Z,61987.09
2023-03-17T16:40:35.567Z,61974.81
2023-03-17T16:43:12.894Z,61975.88
2023-03-17T16:45:44.352Z,61975.22
2023-03-17T16:48:15.417Z,61970.47
2023-03-17T16:50:44.473Z,61972.41
2023-03-17T16:53:13.332Z,61961.31
2023-03-17T16:55:43.636Z,61963.78
2023-03-17T16:58:19.704Z,61960.97
2023-03-17T17:00:49.741Z,61952.03
2023-03-17T17:03:18.478Z,61951.38
2023-03-17T17:05:47.676Z,61937.03
2023-03-17T17:08:16.259Z,61937.03
2023-03-17T17:10:46.170Z,61936.81
2023-03-17T17:13:14.745Z,61933.06
2023-03-17T17:15:43.882Z,61927.34
2023-03-17T17:18:17.684Z,61917.63
2023-03-17T17:20:47.884Z,61917.63
2023-03-17T17:23:19.014Z,61914.28
2023-03-17T17:25:49.700Z,61907.94
2023-03-17T17:28:22.417Z,61910.09
2023-03-17T17:30:51.854Z,61905.25
2023-03-17T17:33:21.216Z,61912.03
2023-03-17T17:35:50.851Z,61915.59
2023-03-17T17:38:23.666Z,61906.22
2023-03-17T17:40:53.893Z,61906.22
2023-03-17T17:43:22.358Z,61910.00
2023-03-17T17:45:51.145Z,61907.94
2023-03-17T17:48:23.512Z,61913.88
2023-03-17T17:50:53.162Z,61919.56
2023-03-17T17:53:21.822Z,61917.00
2023-03-17T17:55:52.248Z,61914.84
2023-03-17T17:58:23.363Z,61915.28
2023-03-17T18:00:55.069Z,61908.28
2023-03-17T18:03:25.276Z,61898.25
2023-03-17T18:05:53.924Z,61891.25
2023-03-17T18:08:22.476Z,61891.03
2023-03-17T18:10:52.628Z,61881.31
2023-03-17T18:13:21.280Z,61874.97
2023-03-17T18:15:49.733Z,61871.75
2023-03-17T18:18:18.146Z,61868.50
2023-03-17T18:20:46.618Z,61864.84
2023-03-17T18:23:16.043Z,61851.91
2023-03-17T18:25:44.461Z,61862.38
2023-03-17T18:28:14.213Z,61856.66
2023-03-17T18:30:42.962Z,61851.28
2023-03-17T18:33:16.346Z,61845.47
2023-03-17T18:35:47.824Z,61843.09
2023-03-17T18:38:16.459Z,61845.13
2023-03-17T18:40:45.366Z,61839.44
2023-03-17T18:43:15.442Z,61836.09
2023-03-17T18:45:44.613Z,61832.97
2023-03-17T18:48:13.039Z,61832.31
2023-03-17T18:50:41.453Z,61830.16
2023-03-17T18:53:09.826Z,61825.44
2023-03-17T18:55:39.387Z,61823.28
2023-03-17T18:58:07.853Z,61819.38
2023-03-17T19:00:37.631Z,61810.88
2023-03-17T19:03:06.267Z,61810.22
2023-03-17T19:05:39.599Z,61805.38
2023-03-17T19:08:08.844Z,61792.69
2023-03-17T19:10:37.201Z,61797.84
2023-03-17T19:13:06.180Z,61793.22
2023-03-17T19:15:35.391Z,61794.06
2023-03-17T19:18:05.327Z,61781.81
2023-03-17T19:20:34.536Z,61780.19
2023-03-17T19:23:04.419Z,61778.06
2023-03-17T19:25:32.797Z,61776.53
2023-03-17T19:28:03.198Z,61779.13
2023-03-17T19:30:31.917Z,61781.69
2023-03-17T19:33:00.783Z,61779.53
2023-03-17T19:35:30.560Z,61780.09
2023-03-17T19:37:59.052Z,61774.38
2023-03-17T19:40:27.634Z,61779.53
2023-03-17T19:42:56.133Z,61773.19
2023-03-17T19:45:26.135Z,61769.03
2023-03-17T19:47:54.591Z,61765.25
2023-03-17T19:50:23.001Z,61767.94
2023-03-17T19:52:53.299Z,61766.88
2023-03-17T19:55:24.434Z,61765.78
2023-03-17T19:57:52.922Z,61770.94
2023-03-17T20:00:22.614Z,61765.78
2023-03-17T20:02:51.705Z,61768.34
2023-03-17T20:05:20.713Z,61767.41
2023-03-17T20:07:49.172Z,61767.28
2023-03-17T20:10:19.373Z,61762.44
2023-03-17T20:12:47.710Z,61763.63
2023-03-17T20:15:16.549Z,61772.03
2023-03-17T20:17:45.179Z,61763.09
2023-03-17T20:20:15.396Z,61768.16
2023-03-17T20:22:44.045Z,61757.19
2023-03-17T20:25:12.983Z,61759.66
2023-03-17T20:27:43.036Z,61752.88
2023-03-17T20:30:13.306Z,61755.03
2023-03-17T20:32:41.839Z,61757.06
2023-03-17T20:35:11.789Z,61755.56
2023-03-17T20:37:40.480Z,61764.47
2023-03-17T20:40:10.827Z,61759.75
2023-03-17T20:42:39.688Z,61752.22
2023-03-17T20:45:10.276Z,61758.66
2023-03-17T20:47:38.695Z,61755.56
2023-03-17T20:50:08.900Z,61758.66
2023-03-17T20:52:38.202Z,61754.91
2023-03-17T20:55:08.513Z,61752.88
2023-03-17T20:57:37.971Z,61746.94
2023-03-17T21:00:10.518Z,61749.00
2023-03-17T21:02:39.015Z,61748.34
2023-03-17T21:05:07.955Z,61746.84
2023-03-17T21:07:36.544Z,61746.72
2023-03-17T21:10:05.233Z,61742.97
2023-03-17T21:12:33.608Z,61733.41
2023-03-17T21:15:02.025Z,61739.09
2023-03-17T21:17:32.619Z,61734.34
2023-03-17T21:20:01.832Z,61728.97
2023-03-17T21:22:31.799Z,61711.88
2023-03-17T21:25:00.458Z,61709.19
2023-03-17T21:27:30.064Z,61702.72
2023-03-17T21:29:58.589Z,61691.56
2023-03-17T21:32:27.129Z,61695.75
2023-03-17T21:34:57.055Z,61689.94
2023-03-17T21:37:25.626Z,61688.09
2023-03-17T21:39:54.246Z,61680.81
2023-03-17T21:42:22.694Z,61680.16
2023-03-17T21:44:52.095Z,61680.16
2023-03-17T21:47:20.709Z,61678.66
2023-03-17T21:49:49.806Z,61679.06
2023-03-17T21:52:20.967Z,61681.22
2023-03-17T21:54:50.409Z,61683.38
2023-03-17T21:57:18.841Z,61675.53
2023-03-17T21:59:47.657Z,61674.78
2023-03-17T22:02:17.621Z,61684.22
2023-03-17T22:04:46.966Z,61684.88
2023-03-17T22:07:16.607Z,61682.31
2023-03-17T22:09:47.086Z,61685.94
2023-03-17T22:12:15.694Z,61682.31
2023-03-17T22:14:44.259Z,61678.66
2023-03-17T22:17:13.198Z,61680.16
2023-03-17T22:19:44.015Z,61678.41
2023-03-17T22:22:12.864Z,61671.00
2023-03-17T22:24:41.784Z,61665.72
2023-03-17T22:27:11.691Z,61663.56
2023-03-17T22:29:40.156Z,61661.84
2023-03-17T22:32:09.585Z,61662.69
2023-03-17T22:34:38.682Z,61660.13
2023-03-17T22:37:07.667Z,61650.16
2023-03-17T22:39:36.037Z,61656.91
2023-03-17T22:42:04.634Z,61661.22
2023-03-17T22:44:34.508Z,61653.78
2023-03-17T22:47:02.912Z,61657.97
2023-03-17T22:49:31.454Z,61646.38
2023-03-17T22:51:59.848Z,61654.31
2023-03-17T22:54:28.249Z,61652.72
2023-03-17T22:56:57.043Z,61653.25
2023-03-17T22:59:25.530Z,61650.44
2023-03-17T23:01:55.638Z,61646.25
2023-03-17T23:04:24.594Z,61640.44
2023-03-17T23:06:53.531Z,61644.00
2023-03-17T23:09:23.153Z,61643.03
2023-03-17T23:11:51.714Z,61645.06
2023-03-17T23:14:20.152Z,61649.91
2023-03-17T23:16:48.777Z,61643.59
2023-03-17T23:19:18.612Z,61641.97
2023-03-17T23:21:47.380Z,61641.84
2023-03-17T23:24:15.690Z,61646.25
2023-03-17T23:26:44.578Z,61644.88
2023-03-17T23:29:13.162Z,61652.59
2023-03-17T23:31:41.696Z,61642.06
2023-03-17T23:34:10.824Z,61653.25
2023-03-17T23:36:40.686Z,61657.44
2023-03-17T23:39:10.258Z,61664.00
2023-03-17T23:41:39.198Z,61663.56
2023-03-17T23:44:07.970Z,61667.53
2023-03-17T23:46:36.665Z,61666.56
2023-03-17T23:49:07.243Z,61666.16
2023-03-17T23:51:36.087Z,61675.72
2023-03-17T23:54:07.759Z,61676.94
2023-03-17T23:56:36.302Z,61679.63
2023-03-17T23:59:07.466Z,61676.28
